Time;durP1;ratioP1;P1;durP2;ratioP2;P2;SDS_P1;SDS_P2;PMS_P1;PMS_P2;Temp;Humidity;BMP_temperature;BMP_pressure;BME280_temperature;BME280_humidity;BME280_pressure;Samples;Min_cycle;Max_cycle;Signal;HPM_P1;HPM_P2
2022/01/28 00:04:56;;;;;;;11.77;2.33;;;;;;;3.83;100.00;100380.84;4889252;28;20035;-83
2022/01/28 00:07:22;;;;;;;29.25;3.92;;;5.50;99.90;;;3.78;100.00;100383.56;4901384;28;20043;-85
2022/01/28 00:10:20;;;;;;;20.02;4.20;;;5.40;99.90;;;3.74;100.00;100400.16;4874535;28;20038;-86
2022/01/28 00:13:21;;;;;;;24.70;3.05;;;5.30;99.90;;;3.66;100.00;100397.72;4852093;28;20074;-85
2022/01/28 00:38:25;;;;;;;19.00;3.58;;;5.00;99.90;;;3.34;100.00;100442.69;4897966;28;20500;-83
2022/01/28 00:40:54;;;;;;;18.38;3.33;;;;;;;3.32;100.00;100436.66;4848218;28;20659;-83
2022/01/28 00:43:20;;;;;;;23.00;3.83;;;5.00;99.90;;;3.31;100.00;100444.53;4856546;28;20042;-83
2022/01/28 00:45:46;;;;;;;23.33;4.10;;;5.00;99.90;;;3.25;100.00;100445.50;4852327;28;20510;-84
2022/01/28 00:48:12;;;;;;;18.98;3.15;;;4.90;99.90;;;3.27;100.00;100449.75;4880923;28;20031;-83
2022/01/28 00:50:50;;;;;;;18.23;3.15;;;4.90;99.90;;;3.28;100.00;100451.50;4897797;28;20034;-84
2022/01/28 00:53:16;;;;;;;22.52;2.90;;;4.90;99.90;;;3.31;100.00;100474.00;4889920;28;20033;-84
2022/01/28 00:55:54;;;;;;;25.20;4.40;;;4.90;99.90;;;3.31;100.00;100480.94;4885015;28;20556;-82
2022/01/28 00:58:32;;;;;;;19.20;3.08;;;4.90;99.90;;;3.27;100.00;100482.75;4862058;28;20035;-82
2022/01/28 01:00:58;;;;;;;28.08;4.00;;;4.90;99.90;;;3.21;100.00;100477.66;4902878;28;20546;-82
2022/01/28 01:03:24;;;;;;;30.92;3.13;;;4.90;99.90;;;3.19;100.00;100472.47;4905834;28;20122;-82
2022/01/28 01:06:00;;;;;;;31.00;4.88;;;4.90;99.90;;;3.19;100.00;100480.28;4900518;28;20114;-83
2022/01/28 01:08:26;;;;;;;20.10;3.92;;;4.90;99.90;;;3.19;100.00;100487.25;4910787;28;20073;-81
2022/01/28 01:10:54;;;;;;;21.50;3.67;;;4.80;99.90;;;3.18;100.00;100498.56;4885316;28;20027;-83
2022/01/28 01:13:37;;;;;;;21.30;3.53;;;4.80;99.90;;;3.16;100.00;100502.94;4884340;28;20039;-84
2022/01/28 01:16:11;;;;;;;23.48;3.95;;;4.80;99.90;;;3.08;100.00;100498.72;4900762;28;20125;-84
2022/01/28 01:18:48;;;;;;;23.30;3.30;;;5.00;99.90;;;3.05;100.00;100500.53;4896726;28;20041;-82
2022/01/28 01:21:21;;;;;;;30.23;4.00;;;4.70;99.90;;;3.01;100.00;100507.53;4883810;28;20560;-83
2022/01/28 01:23:54;;;;;;;28.17;3.40;;;;;;;3.01;100.00;100520.53;4871786;28;20534;-82
2022/01/28 01:26:30;;;;;;;41.83;4.47;;;;;;;2.96;100.00;100516.28;4860046;28;20031;-84
2022/01/28 01:28:56;;;;;;;20.50;3.45;;;4.60;99.90;;;2.90;100.00;100534.63;4886681;28;20105;-82
2022/01/28 01:31:22;;;;;;;27.88;3.83;;;4.60;99.90;;;2.90;100.00;100538.09;4851287;28;20105;-83
2022/01/28 01:34:12;;;;;;;26.80;4.25;;;4.60;99.90;;;2.84;100.00;100535.59;4871086;28;20037;-81
2022/01/28 01:36:38;;;;;;;20.67;4.05;;;4.50;99.90;;;2.84;100.00;100554.66;4883922;28;20568;-82
2022/01/28 01:39:07;;;;;;;17.55;2.80;;;;;;;2.81;100.00;100557.31;4883937;28;20036;-82
2022/01/28 01:41:54;;;;;;;21.90;3.05;;;4.50;99.90;;;2.79;100.00;100566.03;4884571;28;20037;-82
2022/01/28 01:52:57;;;;;;;25.50;3.50;;;4.40;99.90;;;2.72;100.00;100591.28;4874895;28;20055;-82
2022/01/28 01:55:24;;;;;;;23.23;4.18;;;4.30;99.90;;;2.72;100.00;100596.47;4884428;28;20051;-81
2022/01/28 01:57:50;;;;;;;20.88;4.20;;;4.40;99.90;;;2.67;100.00;100593.94;4841859;28;20412;-83
2022/01/28 02:02:48;;;;;;;33.95;3.92;;;;;;;2.71;100.00;100604.28;4949864;22;20059;-85
2022/01/28 02:05:15;;;;;;;22.05;2.83;;;;;;;2.73;100.00;100629.38;4935379;28;20425;-83
2022/01/28 02:07:51;;;;;;;38.30;3.97;;;4.40;99.90;;;2.72;100.00;100626.78;4905434;28;20598;-82
2022/01/28 02:10:17;;;;;;;37.50;4.25;;;4.40;99.90;;;2.66;100.00;100633.81;4974229;28;20069;-83
2022/01/28 02:13:11;;;;;;;40.20;4.03;;;4.30;99.90;;;2.65;100.00;100637.28;4959585;28;20500;-82
2022/01/28 02:15:37;;;;;;;21.25;4.03;;;4.30;99.90;;;2.62;100.00;100650.34;4931379;28;20150;-82
2022/01/28 02:18:03;;;;;;;30.38;2.85;;;4.30;99.90;;;2.61;100.00;100640.84;4953700;28;20025;-82
2022/01/28 02:20:38;;;;;;;20.17;3.30;;;4.30;99.90;;;2.59;100.00;100637.41;4972737;23;20109;-82
2022/01/28 02:23:04;;;;;;;25.30;3.58;;;4.30;99.90;;;2.52;100.00;100643.56;4908528;28;20170;-81
2022/01/28 02:25:33;;;;;;;25.80;3.55;;;4.20;99.90;;;2.53;100.00;100650.50;4905816;28;20068;-82
2022/01/28 02:28:12;;;;;;;23.92;3.88;;;;;;;2.51;100.00;100659.19;4900440;28;20124;-83
2022/01/28 02:30:48;;;;;;;24.23;3.10;;;4.20;99.90;;;2.57;100.00;100654.78;4936229;28;20125;-82
2022/01/28 02:33:17;;;;;;;30.75;4.15;;;4.20;99.90;;;2.56;100.00;100670.38;4887411;28;20058;-82
2022/01/28 02:36:07;;;;;;;18.42;3.70;;;4.20;99.90;;;2.56;100.00;100679.03;4901868;28;20074;-85
2022/01/28 02:38:34;;;;;;;28.73;3.28;;;4.30;99.90;;;2.60;100.00;100685.91;4905804;28;20035;-84
2022/01/28 02:41:02;;;;;;;29.50;3.95;;;4.30;99.90;;;2.62;100.00;100704.94;4953228;22;20538;-83
2022/01/28 02:43:42;;;;;;;29.95;3.55;;;4.30;99.90;;;2.56;100.00;100699.81;4906728;28;20072;-82
2022/01/28 02:46:16;;;;;;;27.40;4.00;;;;;;;2.55;100.00;100705.03;4890776;28;21065;-81
2022/01/28 02:48:54;;;;;;;21.90;2.70;;;4.20;99.90;;;2.53;100.00;100697.28;4915335;28;20026;-83
2022/01/28 02:51:22;;;;;;;27.70;4.85;;;4.30;99.90;;;2.53;100.00;100719.78;4933655;28;20029;-81
2022/01/28 02:54:00;;;;;;;21.70;2.78;;;4.20;99.90;;;2.51;100.00;100706.00;4958873;28;20529;-84
2022/01/28 02:56:40;;;;;;;25.95;3.05;;;4.20;99.90;;;2.52;100.00;100711.13;4902693;28;20101;-81
2022/01/28 02:59:07;;;;;;;22.35;3.83;;;;;;;2.54;100.00;100722.38;4938120;28;20038;-83
2022/01/28 03:01:34;;;;;;;29.70;4.57;;;4.20;99.90;;;2.54;100.00;100716.31;4934765;23;20041;-82
2022/01/28 03:04:07;;;;;;;17.40;2.53;;;4.20;99.90;;;2.54;100.00;100735.38;4883567;28;20125;-81
2022/01/28 03:06:34;;;;;;;27.40;3.63;;;4.20;99.90;;;2.53;100.00;100723.28;4963065;28;20652;-83
2022/01/28 03:09:09;;;;;;;30.67;3.78;;;4.20;99.90;;;2.57;100.00;100731.88;4916356;28;20051;-81
2022/01/28 03:14:22;;;;;;;14.10;2.13;;;;;;;2.55;100.00;100744.91;4921147;28;20025;-83
2022/01/28 03:17:05;;;;;;;26.73;3.38;;;4.20;99.90;;;2.52;100.00;100759.69;4925693;28;20059;-83
2022/01/28 03:19:44;;;;;;;17.58;2.58;;;4.20;99.90;;;2.45;100.00;100761.50;4948449;28;20095;-82
2022/01/28 03:22:13;;;;;;;18.48;3.58;;;4.20;99.90;;;2.42;100.00;100756.34;4895850;23;20039;-83
2022/01/28 03:24:41;;;;;;;18.13;2.75;;;4.10;99.90;;;2.42;100.00;100783.19;4890043;28;20498;-83
2022/01/28 03:27:15;;;;;;;30.27;3.10;;;4.10;99.90;;;2.41;100.00;100776.25;4917377;28;20069;-82
2022/01/28 03:29:41;;;;;;;28.92;4.00;;;;;;;2.39;100.00;100779.75;4986382;28;20035;-81
2022/01/28 03:32:08;;;;;;;16.98;3.28;;;4.10;99.90;;;2.41;100.00;100778.84;4951787;28;20038;-82
2022/01/28 03:34:34;;;;;;;27.17;3.63;;;4.10;99.90;;;2.40;100.00;100791.88;4912630;28;20117;-81
2022/01/28 03:37:00;;;;;;;17.60;3.00;;;4.10;99.90;;;2.39;100.00;100785.81;4947556;28;20805;-80
2022/01/28 03:39:26;;;;;;;14.13;2.42;;;4.10;99.90;;;2.37;100.00;100795.34;4944694;28;20045;-82
2022/01/28 03:42:01;;;;;;;14.68;3.80;;;4.10;99.90;;;2.39;100.00;100790.16;4935379;23;20037;-81
2022/01/28 03:44:27;;;;;;;25.40;4.00;;;4.10;99.90;;;2.41;100.00;100804.84;4956558;28;20364;-83
2022/01/28 03:46:53;;;;;;;11.07;2.63;;;4.10;99.90;;;2.41;100.00;100801.41;4900153;28;20072;-82
2022/01/28 03:49:28;;;;;;;18.90;2.65;;;4.10;99.90;;;2.38;100.00;100809.25;4876911;28;20030;-82
2022/01/28 03:51:54;;;;;;;24.50;3.47;;;4.10;99.90;;;2.36;100.00;100805.78;4923144;28;21448;-82
2022/01/28 03:54:20;;;;;;;38.95;3.70;;;4.10;99.90;;;2.38;100.00;100814.44;4908050;28;20391;-82
2022/01/28 03:56:52;;;;;;;19.08;3.50;;;4.10;99.90;;;2.38;100.00;100819.63;4931984;28;20518;-82
2022/01/28 03:59:18;;;;;;;17.70;2.88;;;4.00;99.90;;;2.35;100.00;100832.63;4931333;28;20058;-82
2022/01/28 04:01:47;;;;;;;19.60;3.25;;;4.10;99.90;;;2.38;100.00;100819.63;4897523;23;20050;-82
2022/01/28 04:12:42;;;;;;;17.50;3.17;;;4.10;99.90;;;2.46;100.00;100873.25;4895812;28;20033;-83
2022/01/28 04:17:59;;;;;;;20.35;3.03;;;4.10;99.90;;;2.41;100.00;100869.81;4920329;28;20325;-83
2022/01/28 04:20:26;;;;;;;16.33;2.97;;;;;;;2.43;100.00;100886.25;4924969;28;20051;-81
2022/01/28 04:22:52;;;;;;;22.55;2.75;;;4.20;99.90;;;2.43;100.00;100880.22;4911165;28;20883;-84
2022/01/28 04:25:27;;;;;;;24.45;3.10;;;;;;;2.40;100.00;100886.31;4901761;28;20022;-82
2022/01/28 04:27:53;;;;;;;13.30;2.42;;;4.10;99.90;;;2.40;100.00;100901.03;4920995;28;20045;-82
2022/01/28 04:30:19;;;;;;;12.57;3.22;;;4.10;99.90;;;2.40;100.00;100908.84;4943245;28;20029;-82
2022/01/28 04:32:55;;;;;;;16.65;2.92;;;4.10;99.90;;;2.39;100.00;100915.75;4941674;28;20877;-82
2022/01/28 04:35:22;;;;;;;20.10;2.88;;;;;;;2.39;100.00;100935.69;4887675;28;21542;-82
2022/01/28 04:45:54;;;;;;;18.45;2.63;;;4.00;99.90;;;2.36;100.00;100940.94;4917735;28;20046;-83
2022/01/28 04:48:37;;;;;;;13.88;2.85;;;;;;;2.34;100.00;100950.47;4884541;28;20135;-82
2022/01/28 04:51:18;;;;;;;23.08;2.67;;;4.10;99.90;;;2.36;100.00;100939.19;4890994;28;20024;-84
2022/01/28 05:02:31;;;;;;;14.40;2.08;;;4.10;99.90;;;2.38;100.00;100963.41;4829379;28;20135;-83
2022/01/28 05:24:57;;;;;;;19.85;2.17;;;4.10;99.90;;;2.37;100.00;101024.06;4935912;28;20566;-83
2022/01/28 05:27:27;;;;;;;8.45;1.98;;;4.00;99.90;;;2.37;100.00;101031.00;4943554;28;20025;-85
2022/01/28 05:30:05;;;;;;;16.23;1.90;;;4.10;99.90;;;2.41;100.00;101048.28;4904674;28;20530;-83
2022/01/28 05:32:40;;;;;;;23.05;2.25;;;4.10;99.90;;;2.45;100.00;101052.59;5023347;28;21099;-84
2022/01/28 05:35:07;;;;;;;8.43;1.85;;;4.10;99.90;;;2.45;100.00;101050.84;5005762;28;20090;-83
2022/01/28 05:37:34;;;;;;;12.60;2.35;;;4.10;99.90;;;2.49;100.00;101064.69;4988129;28;20404;-83
2022/01/28 05:40:09;;;;;;;11.85;1.70;;;;;;;2.52;100.00;101069.00;4972349;28;20039;-84
2022/01/28 05:42:36;;;;;;;16.40;2.28;;;4.20;99.90;;;2.47;100.00;101069.91;4979618;28;20069;-83
2022/01/28 05:45:02;;;;;;;13.70;2.17;;;4.20;99.90;;;2.47;100.00;101105.44;4954419;28;20037;-82
2022/01/28 05:47:37;;;;;;;9.15;1.83;;;4.20;99.90;;;2.42;100.00;101096.81;4936428;28;20497;-83
2022/01/28 05:50:05;;;;;;;7.75;1.70;;;4.10;99.90;;;2.42;100.00;101107.22;4935367;28;20034;-84
2022/01/28 05:52:44;;;;;;;16.55;2.33;;;4.10;99.90;;;2.39;100.00;101117.63;4929092;28;20157;-84
2022/01/28 05:55:10;;;;;;;10.18;2.05;;;4.10;99.90;;;2.36;100.00;101123.69;4943412;28;20030;-83
2022/01/28 05:57:45;;;;;;;21.00;2.92;;;;;;;2.36;100.00;101135.84;4976892;28;20108;-83
2022/01/28 06:00:14;;;;;;;8.88;1.88;;;4.00;99.90;;;2.33;100.00;101144.50;4940201;28;20499;-83
2022/01/28 06:02:51;;;;;;;10.93;1.70;;;4.00;99.90;;;2.25;100.00;101149.75;4971783;28;20090;-85
2022/01/28 06:05:31;;;;;;;20.20;2.03;;;4.00;99.90;;;2.26;100.00;101159.25;4955426;28;20040;-82
2022/01/28 06:08:09;;;;;;;;;;;;;;;;;;;;;
2022/01/28 06:10:36;;;;;;;15.55;1.95;;;3.90;99.90;;;2.22;100.00;101162.75;4970666;28;20218;-83
2022/01/28 06:13:12;;;;;;;14.07;2.22;;;;;;;2.23;100.00;101179.22;4985608;28;20128;-84
2022/01/28 06:15:56;;;;;;;15.52;2.38;;;3.90;99.90;;;2.20;100.00;101169.72;4938356;28;20045;-82
2022/01/28 06:18:32;;;;;;;13.40;2.05;;;;;;;2.19;100.00;101180.09;4896860;28;20032;-83
2022/01/28 06:20:58;;;;;;;17.02;1.65;;;3.90;99.90;;;2.18;100.00;101191.34;4994958;23;20037;-82
2022/01/28 06:23:25;;;;;;;16.10;2.08;;;;;;;2.13;100.00;101191.38;4942908;28;20378;-83
2022/01/28 06:26:06;;;;;;;13.65;3.38;;;;;;;2.13;100.00;101199.16;4936127;28;20030;-81
2022/01/28 06:28:40;;;;;;;13.50;2.00;;;;;;;2.11;100.00;101200.91;4952732;28;20081;-83
2022/01/28 06:31:06;;;;;;;16.50;2.60;;;;;;;2.19;100.00;101206.09;4977309;28;20038;-83
2022/01/28 06:33:32;;;;;;;16.38;2.72;;;3.90;99.90;;;2.20;100.00;101216.47;4900827;28;20049;-83
2022/01/28 06:35:58;;;;;;;14.18;2.72;;;3.90;99.90;;;2.15;100.00;101212.16;4911769;28;20120;-83
2022/01/28 06:38:36;;;;;;;10.57;2.22;;;3.90;99.90;;;2.20;100.00;101228.59;4953911;28;20065;-82
2022/01/28 06:41:02;;;;;;;12.27;1.80;;;3.90;99.90;;;2.18;100.00;101239.00;4887200;28;20031;-84
2022/01/28 06:43:37;;;;;;;16.40;2.08;;;;;;;2.20;100.00;101236.38;4912135;28;20057;-83
2022/01/28 06:46:04;;;;;;;12.05;1.48;;;3.90;99.90;;;2.19;100.00;101258.03;4906134;28;20081;-82
2022/01/28 06:48:40;;;;;;;12.00;1.92;;;;;;;2.18;100.00;101248.50;4926548;28;20034;-82
2022/01/28 06:51:06;;;;;;;21.27;2.50;;;3.90;99.90;;;2.22;100.00;101269.28;4936181;28;20205;-82
2022/01/28 06:53:32;;;;;;;6.88;1.38;;;3.90;99.90;;;2.23;100.00;101264.97;4881526;28;20376;-83
2022/01/28 06:55:58;;;;;;;12.05;2.17;;;3.90;99.90;;;2.21;100.00;101282.28;4920074;28;20041;-82
2022/01/28 06:58:29;;;;;;;15.43;1.95;;;;;;;2.23;100.00;101293.56;4923642;28;20407;-81
2022/01/28 07:00:55;;;;;;;13.73;1.95;;;3.90;99.90;;;2.24;100.00;101292.66;4947627;28;20113;-84
2022/01/28 07:03:21;;;;;;;16.90;2.97;;;3.90;99.90;;;2.25;100.00;101317.78;4936748;28;21664;-82
2022/01/28 07:05:47;;;;;;;14.30;2.05;;;3.90;99.90;;;2.23;100.00;101314.34;4897386;28;20046;-82
2022/01/28 07:08:13;;;;;;;12.30;1.58;;;3.90;99.90;;;2.22;100.00;101318.63;4916090;28;20034;-83
2022/01/28 07:10:47;;;;;;;31.40;3.22;;;3.90;99.90;;;2.22;100.00;101329.03;4911802;28;21095;-83
2022/01/28 07:13:13;;;;;;;16.67;2.30;;;3.90;99.90;;;2.28;100.00;101320.38;4915663;28;20040;-82
2022/01/28 07:15:39;;;;;;;19.52;2.33;;;3.90;99.90;;;2.26;100.00;101330.75;4935796;28;20117;-83
2022/01/28 07:18:12;;;;;;;9.40;2.30;;;3.90;99.90;;;2.26;100.00;101328.16;4942166;28;20062;-82
2022/01/28 07:20:41;;;;;;;10.10;1.83;;;3.90;99.90;;;2.27;100.00;101329.06;4914601;28;20042;-83
2022/01/28 07:23:08;;;;;;;18.55;2.08;;;;;;;2.35;99.94;101331.59;4933097;28;20045;-83
2022/01/28 07:25:48;;;;;;;19.13;2.85;;;4.00;99.90;;;2.38;99.71;101340.28;4873232;28;20092;-84
2022/01/28 07:28:25;;;;;;;13.07;1.42;;;4.00;99.90;;;2.40;99.70;101341.13;4917785;28;20038;-82
2022/01/28 07:31:01;;;;;;;18.23;2.42;;;;;;;2.41;99.33;101349.78;4936600;28;20034;-82
2022/01/28 07:33:27;;;;;;;;;;;4.00;99.90;;;2.39;99.50;101343.72;4914746;28;20050;-83
2022/01/28 07:35:53;;;;;;;7.00;1.60;;;;;;;2.46;99.68;101374.03;4926310;28;20404;-82
2022/01/28 07:38:19;;;;;;;14.57;2.58;;;4.10;99.90;;;2.49;99.24;101374.03;4936894;28;20088;-83
2022/01/28 07:40:57;;;;;;;12.70;2.47;;;4.10;99.90;;;2.55;99.11;101384.41;4917480;28;20053;-82
2022/01/28 07:43:23;;;;;;;14.55;2.30;;;4.10;99.90;;;2.65;98.97;101390.44;4925571;28;20060;-83
2022/01/28 07:45:49;;;;;;;15.23;2.42;;;4.20;99.90;;;3.27;97.78;101378.03;4986149;28;20508;-82
2022/01/28 07:48:25;;;;;;;16.90;2.30;;;;;;;3.61;96.26;101416.88;4904570;28;20858;-83
2022/01/28 07:50:51;;;;;;;14.82;2.00;;;4.50;99.90;;;3.71;94.27;101418.50;4947079;28;20064;-81
2022/01/28 07:53:17;;;;;;;15.82;2.03;;;4.70;99.90;;;3.98;92.69;101432.22;4944170;28;20057;-82
2022/01/28 07:55:52;;;;;;;10.02;1.33;;;4.70;99.90;;;3.47;92.72;101425.59;4948466;28;20057;-84
2022/01/28 07:58:18;;;;;;;7.63;1.40;;;4.70;99.90;;;3.19;94.11;101426.66;4916383;28;20025;-84
2022/01/28 08:00:44;;;;;;;11.18;1.77;;;4.60;99.90;;;3.07;95.25;101431.03;4917262;28;20030;-83
2022/01/28 08:03:10;;;;;;;12.20;1.65;;;4.60;99.90;;;3.10;95.92;101443.16;4976114;28;20038;-84
2022/01/28 08:05:42;;;;;;;21.65;1.73;;;;;;;3.08;96.25;101439.69;4946850;28;20038;-83
2022/01/28 08:08:11;;;;;;;8.25;1.23;;;4.60;99.90;;;3.08;96.85;101453.56;4899594;28;22636;-83
2022/01/28 08:10:37;;;;;;;7.07;1.13;;;4.60;99.90;;;3.14;96.88;101472.66;4950706;28;20110;-82
2022/01/28 08:13:14;;;;;;;6.85;1.60;;;4.70;99.90;;;3.17;97.16;101464.81;4916353;28;20038;-82
2022/01/28 08:15:41;;;;;;;11.30;1.42;;;4.70;99.90;;;3.15;96.90;101476.97;4930301;28;20128;-83
2022/01/28 08:18:16;;;;;;;8.55;1.95;;;;;;;3.15;97.35;101483.03;4920726;28;20030;-83
2022/01/28 08:20:44;;;;;;;15.73;2.47;;;4.70;99.90;;;3.15;97.07;101490.84;4926294;28;21652;-83
2022/01/28 08:23:20;;;;;;;15.10;2.50;;;4.70;99.90;;;3.17;97.17;101509.91;4903229;28;20120;-81
2022/01/28 08:25:48;;;;;;;9.23;1.63;;;;;;;3.26;97.55;101520.31;4936608;28;20140;-83
2022/01/28 08:28:22;;;;;;;13.73;2.92;;;4.70;99.90;;;3.25;97.73;101517.72;4986729;28;20041;-86
2022/01/28 08:30:48;;;;;;;15.07;2.35;;;4.80;99.90;;;3.29;97.15;101522.03;4944949;28;20418;-83
2022/01/28 08:33:14;;;;;;;10.18;1.80;;;4.80;99.90;;;3.33;96.88;101521.16;4910771;28;20038;-84
2022/01/28 08:35:40;;;;;;;9.13;1.45;;;4.80;99.90;;;3.40;96.68;101541.09;4915991;28;23185;-85
2022/01/28 08:38:37;;;;;;;5.90;1.30;;;;;;;3.39;96.60;101536.75;4910648;28;20411;-85
2022/01/28 08:41:13;;;;;;;12.85;1.42;;;4.90;99.90;;;3.39;96.80;101551.50;4962815;28;20112;-84
2022/01/28 08:43:51;;;;;;;10.05;1.85;;;4.90;99.90;;;3.41;96.74;101542.84;4913892;28;20514;-83
2022/01/28 08:46:18;;;;;;;17.13;1.80;;;5.00;99.90;;;3.42;96.06;101554.09;4975508;28;20054;-83
2022/01/28 08:48:45;;;;;;;6.65;1.23;;;5.00;99.90;;;3.45;96.71;101552.34;4933795;28;20046;-84
2022/01/28 08:51:19;;;;;;;10.48;1.90;;;5.00;99.90;;;3.49;96.45;101568.81;4915088;28;20062;-83
2022/01/28 08:53:46;;;;;;;15.85;1.98;;;5.00;99.90;;;3.47;96.16;101571.41;4939230;28;20419;-84
2022/01/28 08:56:12;;;;;;;12.27;1.52;;;5.00;99.90;;;3.51;96.77;101572.28;4922977;28;20045;-84
2022/01/28 08:58:45;;;;;;;14.65;2.20;;;;;;;3.53;96.35;101580.09;4931181;28;20100;-84
2022/01/28 09:01:12;;;;;;;10.32;1.52;;;5.00;99.90;;;3.52;96.27;101591.38;4952248;28;20425;-81
2022/01/28 09:03:38;;;;;;;11.73;1.60;;;5.10;99.90;;;3.54;96.34;101587.88;4905616;28;21152;-84
2022/01/28 09:06:04;;;;;;;8.73;1.80;;;5.10;99.90;;;3.59;96.56;101595.72;4904222;28;20038;-85
2022/01/28 09:08:40;;;;;;;5.38;1.13;;;;;;;3.62;96.55;101608.69;4907797;28;20368;-84
2022/01/28 09:11:32;;;;;;;;;;;5.10;99.90;;;3.63;96.45;101615.66;4906378;28;20113;-85
2022/01/28 09:14:00;;;;;;;13.65;1.95;;;5.20;99.90;;;3.62;96.15;101613.91;4947990;28;19918;-84
2022/01/28 09:16:27;;;;;;;11.60;1.95;;;5.20;99.90;;;3.68;96.01;101627.78;4953540;28;20031;-82
2022/01/28 09:18:53;;;;;;;10.52;1.90;;;5.20;99.90;;;3.72;95.99;101620.84;4881048;28;20506;-82
2022/01/28 09:21:28;;;;;;;10.55;1.60;;;5.20;99.90;;;3.74;95.42;101632.09;4890276;28;20165;-82
2022/01/28 09:23:55;;;;;;;13.95;1.52;;;5.30;99.90;;;3.80;95.66;101639.00;4915860;28;20077;-82
2022/01/28 09:26:21;;;;;;;12.85;2.25;;;5.30;99.90;;;3.87;95.49;101643.34;4909481;28;20417;-83
2022/01/28 09:28:58;;;;;;;6.82;1.23;;;5.40;99.90;;;3.93;94.82;101647.66;4888631;28;20038;-83
2022/01/28 09:31:24;;;;;;;5.85;1.02;;;5.40;99.90;;;3.97;94.82;101652.84;4906350;28;20022;-82
2022/01/28 09:33:58;;;;;;;13.65;1.80;;;5.50;99.90;;;4.03;94.04;101662.38;4901501;28;20040;-83
2022/01/28 09:36:24;;;;;;;10.77;1.55;;;5.50;99.90;;;4.10;94.39;101671.91;4934468;28;20030;-83
2022/01/28 09:38:53;;;;;;;13.90;1.55;;;5.50;99.90;;;4.07;92.89;101666.72;4889228;28;20404;-82
2022/01/28 09:41:28;;;;;;;7.25;1.13;;;5.60;99.90;;;4.13;93.33;101677.09;4905191;28;20069;-82
2022/01/28 09:44:00;;;;;;;11.57;1.42;;;5.60;99.90;;;4.18;93.19;101696.19;4903806;28;20041;-82
2022/01/28 09:46:33;;;;;;;9.15;1.05;;;5.70;99.90;;;4.16;92.82;101697.94;4905214;28;20034;-82
2022/01/28 09:48:59;;;;;;;7.70;1.17;;;5.70;99.90;;;4.18;92.30;101700.53;4916927;28;20486;-83
2022/01/28 09:51:25;;;;;;;8.77;1.58;;;5.70;99.90;;;4.20;91.74;101714.44;4887281;28;20031;-82
2022/01/28 09:53:59;;;;;;;7.15;1.17;;;5.70;99.90;;;4.22;91.41;101725.72;4891526;28;20041;-84
2022/01/28 09:56:26;;;;;;;5.97;1.00;;;5.80;99.90;;;4.28;91.67;101723.97;4876757;28;20451;-83
2022/01/28 09:58:52;;;;;;;8.90;1.55;;;5.80;99.90;;;4.25;90.75;101738.75;4901753;28;21817;-82
2022/01/28 10:01:32;;;;;;;6.05;0.70;;;5.80;99.90;;;4.30;90.46;101753.50;4910655;28;20116;-82
2022/01/28 10:04:10;;;;;;;6.95;0.80;;;5.80;99.90;;;4.31;88.93;101762.19;4879158;28;20040;-83
2022/01/28 10:07:05;;;;;;;10.40;1.15;;;5.80;99.90;;;4.31;88.29;101776.06;4872152;28;20518;-83
2022/01/28 10:09:33;;;;;;;3.83;0.85;;;5.90;99.90;;;4.39;87.42;101785.63;4862735;28;20402;-81
2022/01/28 10:12:31;;;;;;;9.57;0.57;;;6.00;99.90;;;4.48;87.78;101815.13;4885228;28;20027;-82
2022/01/28 10:15:29;;;;;;;4.68;0.77;;;6.00;99.90;;;4.52;87.59;101814.25;4914128;28;20094;-81
2022/01/28 10:18:01;;;;;;;2.47;0.73;;;6.00;99.90;;;4.57;86.83;101829.88;4881188;28;20033;-82
2022/01/28 10:20:28;;;;;;;1.75;0.38;;;6.10;99.90;;;4.59;84.57;101814.22;4897740;28;20023;-81
2022/01/28 10:23:16;;;;;;;4.50;0.65;;;6.20;99.90;;;4.76;84.75;101845.47;4914059;28;20034;-81
2022/01/28 10:25:43;;;;;;;5.05;0.60;;;6.20;99.90;;;4.73;83.21;101846.34;4891534;28;20111;-83
2022/01/28 10:28:12;;;;;;;10.68;0.70;;;6.20;99.90;;;4.73;81.67;101860.25;4886028;28;20043;-80
2022/01/28 10:30:54;;;;;;;2.70;0.50;;;6.20;99.90;;;4.69;79.26;101857.69;4877233;28;20022;-81
2022/01/28 10:33:27;;;;;;;3.45;0.70;;;6.30;99.90;;;4.78;80.27;101882.88;4883434;28;20018;-82
2022/01/28 10:36:08;;;;;;;3.03;0.60;;;6.30;99.90;;;4.82;79.46;101871.53;4923083;28;20052;-82
2022/01/28 10:39:04;;;;;;;2.25;0.73;;;6.30;99.90;;;4.76;77.44;101879.38;4883462;28;20030;-82
2022/01/28 10:41:50;;;;;;;3.25;0.40;;;6.30;99.90;;;4.80;77.12;101875.91;4911872;28;20088;-80
2022/01/28 10:44:24;;;;;;;7.70;0.80;;;6.30;99.90;;;4.77;76.47;101891.56;4890650;28;20093;-82
2022/01/28 10:47:03;;;;;;;4.00;0.57;;;6.30;99.90;;;4.82;76.61;101888.06;4900742;28;20034;-81
2022/01/28 10:49:45;;;;;;;5.55;0.77;;;6.30;99.90;;;4.88;76.39;101918.47;4882456;28;20033;-83
2022/01/28 10:52:14;;;;;;;1.60;0.20;;;6.40;99.90;;;4.91;76.39;101914.09;4908889;28;20063;-80
2022/01/28 10:55:02;;;;;;;4.32;0.32;;;6.40;99.90;;;4.88;73.99;101900.19;4875865;28;20023;-82
2022/01/28 10:57:33;;;;;;;1.63;0.30;;;6.40;99.90;;;4.91;74.36;101921.94;4869762;28;20079;-81
2022/01/28 11:00:06;;;;;;;4.38;0.40;;;6.40;99.90;;;4.98;74.57;101928.00;4861935;28;20027;-81
2022/01/28 11:02:36;;;;;;;1.15;0.20;;;6.50;99.90;;;4.95;74.14;101925.41;4913628;28;20107;-81
2022/01/28 11:05:12;;;;;;;5.07;0.80;;;6.40;99.90;;;4.94;73.71;101940.19;4905596;28;20501;-82
2022/01/28 11:07:39;;;;;;;0.77;0.20;;;6.50;99.90;;;4.98;73.69;101943.66;4888184;28;20112;-81
2022/01/28 11:10:12;;;;;;;1.80;0.43;;;6.50;99.90;;;4.97;72.90;101928.91;4931234;28;20038;-81
2022/01/28 11:12:44;;;;;;;3.25;0.30;;;6.50;99.90;;;4.98;71.84;101950.63;4916988;28;20029;-81
2022/01/28 11:15:16;;;;;;;0.40;0.20;;;6.50;99.90;;;5.10;72.70;101947.97;4928302;28;20041;-80
2022/01/28 11:17:43;;;;;;;4.22;0.38;;;6.60;99.90;;;5.12;73.25;101946.25;4907847;28;20056;-81
2022/01/28 11:20:12;;;;;;;3.13;0.40;;;6.60;99.90;;;5.09;72.52;101949.69;4921198;28;20038;-81
2022/01/28 11:23:09;;;;;;;2.85;0.57;;;6.60;99.90;;;5.10;72.45;101953.22;4881525;28;20038;-82
2022/01/28 11:26:12;;;;;;;1.75;0.30;;;6.60;99.90;;;5.20;73.40;101949.66;4905691;28;20499;-83
2022/01/28 11:28:56;;;;;;;4.15;0.73;;;6.70;99.90;;;5.13;72.54;101938.38;4900376;28;20748;-81
2022/01/28 11:31:55;;;;;;;5.90;0.50;;;6.70;99.90;;;5.12;73.31;101947.09;4886664;28;20040;-82
2022/01/28 11:34:35;;;;;;;2.17;0.43;;;6.60;99.90;;;5.09;73.35;101931.44;4925023;28;20043;-82
2022/01/28 11:37:14;;;;;;;4.18;1.08;;;6.60;99.90;;;5.02;73.67;101942.78;4885190;28;20104;-82
2022/01/28 11:39:50;;;;;;;3.60;0.55;;;6.50;99.90;;;4.94;75.03;101945.41;4907366;28;20034;-82
2022/01/28 11:42:30;;;;;;;6.35;0.90;;;6.50;99.90;;;4.92;76.33;101948.91;4909413;28;20145;-82
2022/01/28 11:44:59;;;;;;;2.97;0.40;;;6.50;99.90;;;4.92;75.41;101943.69;4883347;28;20419;-83
2022/01/28 11:47:53;;;;;;;2.85;0.57;;;;;;;4.90;75.31;101942.81;4941025;28;20538;-82
2022/01/28 11:50:31;;;;;;;5.40;0.60;;;;;;;4.88;74.81;101949.78;4943021;28;20105;-81
2022/01/28 11:53:03;;;;;;;3.72;0.50;;;6.50;99.90;;;4.93;74.89;101961.09;4944008;28;20059;-82
2022/01/28 11:55:35;;;;;;;3.50;0.43;;;6.50;99.90;;;4.99;73.67;101966.31;4892242;28;20041;-82
2022/01/28 11:58:21;;;;;;;5.20;0.70;;;6.60;99.90;;;5.08;73.09;101960.16;4911148;28;20035;-82
2022/01/28 12:00:55;;;;;;;2.20;0.50;;;6.60;99.90;;;5.04;70.13;101984.56;4917966;28;20072;-82
2022/01/28 12:03:37;;;;;;;2.13;0.55;;;6.60;99.90;;;5.02;69.00;101997.59;4894160;28;20027;-81
2022/01/28 12:06:21;;;;;;;7.75;0.93;;;;;;;4.95;67.89;102014.16;4908997;28;20025;-81
2022/01/28 12:08:55;;;;;;;1.75;0.65;;;6.50;99.90;;;4.92;67.12;102003.72;4929091;28;20026;-81
2022/01/28 12:11:54;;;;;;;5.50;0.40;;;6.40;99.90;;;4.90;67.55;102026.34;4918525;28;20108;-81
2022/01/28 12:15:09;;;;;;;1.38;0.22;;;6.40;99.90;;;4.77;65.94;102069.84;4938377;28;20103;-80
2022/01/28 12:17:49;;;;;;;7.97;0.25;;;6.40;99.90;;;4.76;65.09;102049.88;4850841;28;20031;-81
2022/01/28 12:20:36;;;;;;;4.15;0.65;;;6.40;99.90;;;4.81;65.46;102042.03;4904500;28;20057;-81
2022/01/28 12:23:26;;;;;;;4.13;0.80;;;;;;;4.84;66.20;102042.03;4941732;28;20117;-81